createdAt,value
2022-10-11T00:00:19.826Z,90.79
2022-10-11T00:01:19.836Z,90.89
2022-10-11T00:02:19.794Z,90.99
2022-10-11T00:03:19.769Z,90.99
2022-10-11T00:04:19.774Z,90.99
2022-10-11T00:05:19.763Z,91.09
2022-10-11T00:06:19.722Z,91.09
2022-10-11T00:07:19.729Z,91.20
2022-10-11T00:08:19.722Z,91.20
2022-10-11T00:09:19.713Z,91.30
2022-10-11T00:10:19.684Z,91.20
2022-10-11T00:11:19.674Z,91.20
2022-10-11T00:12:19.660Z,91.09
2022-10-11T00:13:19.666Z,91.20
2022-10-11T00:14:19.641Z,91.30
2022-10-11T00:15:19.654Z,91.30
2022-10-11T00:16:19.620Z,91.40
2022-10-11T00:17:19.609Z,91.50
2022-10-11T00:18:19.570Z,91.40
2022-10-11T00:19:19.573Z,91.40
2022-10-11T00:20:19.574Z,91.40
2022-10-11T00:21:19.529Z,91.40
2022-10-11T00:22:19.517Z,91.44
2022-10-11T00:23:19.511Z,91.44
2022-10-11T00:24:19.500Z,91.44
2022-10-11T00:25:19.517Z,91.44
2022-10-11T00:26:19.480Z,91.55
2022-10-11T00:27:19.457Z,91.55
2022-10-11T00:28:19.522Z,91.44
2022-10-11T00:29:19.451Z,91.44
2022-10-11T00:30:19.442Z,91.44
2022-10-11T00:31:19.420Z,91.55
2022-10-11T00:32:19.396Z,91.55
2022-10-11T00:33:19.391Z,91.55
2022-10-11T00:34:19.367Z,91.75
2022-10-11T00:35:19.359Z,91.75
2022-10-11T00:36:19.347Z,91.75
2022-10-11T00:37:19.351Z,91.75
2022-10-11T00:38:19.328Z,91.86
2022-10-11T00:39:19.304Z,91.86
2022-10-11T00:40:19.299Z,91.86
2022-10-11T00:41:19.289Z,91.96
2022-10-11T00:42:19.278Z,91.96
2022-10-11T00:43:19.254Z,91.86
2022-10-11T00:44:19.233Z,91.86
2022-10-11T00:45:19.227Z,91.96
2022-10-11T00:46:19.226Z,91.90
2022-10-11T00:47:19.196Z,91.86
2022-10-11T00:48:19.187Z,91.86
2022-10-11T00:49:19.177Z,91.86
2022-10-11T00:50:19.156Z,91.90
2022-10-11T00:51:19.155Z,91.80
2022-10-11T00:52:19.143Z,91.80
2022-10-11T00:53:19.129Z,91.80
2022-10-11T00:54:19.116Z,91.80
2022-10-11T00:55:19.108Z,91.69
2022-10-11T00:56:19.086Z,91.69
2022-10-11T00:57:19.096Z,91.59
2022-10-11T00:58:19.044Z,91.59
2022-10-11T00:59:19.045Z,91.49
2022-10-11T01:00:19.056Z,91.49
2022-10-11T01:01:19.079Z,91.49
2022-10-11T01:03:27.446Z,91.38
2022-10-11T02:42:06.202Z,91.86
2022-10-11T02:43:02.939Z,91.86
2022-10-11T02:44:02.928Z,91.86
2022-10-11T02:45:02.945Z,91.86
2022-10-11T02:46:03.461Z,91.86
2022-10-11T02:47:02.908Z,91.86
2022-10-11T02:48:02.889Z,91.97
2022-10-11T02:49:02.868Z,91.97
2022-10-11T02:50:02.857Z,91.97
2022-10-11T02:51:02.863Z,91.97
2022-10-11T02:52:02.838Z,91.97
2022-10-11T02:53:02.828Z,91.86
2022-10-11T02:54:02.832Z,91.86
2022-10-11T02:55:02.787Z,91.86
2022-10-11T02:56:03.050Z,91.97
2022-10-11T02:57:02.780Z,91.86
2022-10-11T02:58:02.776Z,91.86
2022-10-11T02:59:02.737Z,91.86
2022-10-11T03:00:02.728Z,91.86
2022-10-11T03:01:02.725Z,91.86
2022-10-11T03:02:02.775Z,92.01
2022-10-11T03:03:02.697Z,92.01
2022-10-11T03:04:02.682Z,92.01
2022-10-11T03:05:02.673Z,92.01
2022-10-11T03:06:03.087Z,92.11
2022-10-11T03:07:02.660Z,92.11
2022-10-11T03:08:02.649Z,92.11
2022-10-11T03:09:02.625Z,92.01
2022-10-11T03:10:02.616Z,92.01
2022-10-11T03:11:02.807Z,92.01
2022-10-11T03:12:02.575Z,91.91
2022-10-11T03:13:02.575Z,91.80
2022-10-11T03:14:02.543Z,91.80
2022-10-11T03:15:02.536Z,91.80
2022-10-11T03:16:03.799Z,91.80
2022-10-11T03:17:23.855Z,91.91
2022-10-11T03:18:03.513Z,91.80
2022-10-11T03:19:02.482Z,91.70
2022-10-11T03:20:02.461Z,91.80
2022-10-11T03:21:02.476Z,91.80
2022-10-11T03:22:02.444Z,91.80
2022-10-11T03:23:02.443Z,91.80
2022-10-11T03:24:02.425Z,91.80
2022-10-11T03:25:04.324Z,91.85
2022-10-11T03:26:02.703Z,91.85
2022-10-11T03:27:02.405Z,91.85
2022-10-11T03:28:02.386Z,91.85
2022-10-11T03:29:02.364Z,91.74
2022-10-11T03:30:02.333Z,91.74
2022-10-11T03:31:02.370Z,91.85
2022-10-11T03:32:02.321Z,91.85
2022-10-11T03:33:02.326Z,91.85
2022-10-11T03:34:02.293Z,91.95
2022-10-11T03:35:02.306Z,92.05
2022-10-11T03:36:02.599Z,92.05
2022-10-11T03:37:02.292Z,91.95
2022-10-11T03:38:02.272Z,91.95
2022-10-11T03:39:02.221Z,91.95
2022-10-11T03:40:02.221Z,91.95
2022-10-11T03:41:02.192Z,91.95
2022-10-11T03:42:02.188Z,92.05
2022-10-11T03:43:02.168Z,91.95
2022-10-11T03:44:02.173Z,91.95
2022-10-11T03:45:02.162Z,91.85
2022-10-11T03:46:02.616Z,92.05
2022-10-11T03:47:02.122Z,92.46
2022-10-11T03:48:02.133Z,92.87
2022-10-11T03:49:02.125Z,93.18
2022-10-11T03:50:02.079Z,93.24
2022-10-11T03:51:02.085Z,93.29
2022-10-11T03:52:02.063Z,93.29
2022-10-11T03:53:02.050Z,93.18
2022-10-11T03:54:02.053Z,92.87
2022-10-11T03:55:02.009Z,92.67
2022-10-11T03:56:07.380Z,92.57
2022-10-11T03:57:03.012Z,92.46
2022-10-11T03:58:01.977Z,92.36
2022-10-11T03:59:01.970Z,92.36
2022-10-11T04:00:01.965Z,92.25
2022-10-11T04:01:01.948Z,92.25
2022-10-11T04:02:02.027Z,92.30
2022-10-11T04:03:01.922Z,92.30
2022-10-11T04:04:01.933Z,92.20
2022-10-11T04:05:01.917Z,92.20
2022-10-11T04:06:02.315Z,92.20
2022-10-11T04:07:01.873Z,92.10
2022-10-11T04:08:01.854Z,92.10
2022-10-11T04:09:01.860Z,92.10
2022-10-11T04:10:01.829Z,91.99
2022-10-11T04:11:01.824Z,92.10
2022-10-11T04:12:01.807Z,92.10
2022-10-11T04:13:01.810Z,92.10
2022-10-11T04:14:01.800Z,92.20
2022-10-11T04:15:01.754Z,92.46
2022-10-11T04:16:02.046Z,92.67
2022-10-11T04:17:01.739Z,92.87
2022-10-11T04:18:01.785Z,93.08
2022-10-11T04:19:01.704Z,93.08
2022-10-11T04:20:01.707Z,93.08
2022-10-11T04:21:01.686Z,93.18
2022-10-11T04:22:01.667Z,93.39
2022-10-11T04:23:01.666Z,93.44
2022-10-11T04:24:01.644Z,93.65
2022-10-11T04:25:01.631Z,93.86
2022-10-11T04:26:01.883Z,94.07
2022-10-11T04:27:01.626Z,94.27
2022-10-11T04:28:01.608Z,94.27
2022-10-11T04:29:01.603Z,94.37
2022-10-11T04:30:01.586Z,94.37
2022-10-11T04:31:01.547Z,94.37
2022-10-11T04:32:01.550Z,94.33
2022-10-11T04:33:01.557Z,94.23
2022-10-11T04:34:01.536Z,94.23
2022-10-11T04:35:01.513Z,94.12
2022-10-11T04:36:01.769Z,94.07
2022-10-11T04:37:01.482Z,94.17
2022-10-11T04:38:01.469Z,94.07
2022-10-11T04:39:01.472Z,93.96
2022-10-11T04:40:01.451Z,93.96
2022-10-11T04:41:01.426Z,93.96
2022-10-11T04:42:01.408Z,93.86
2022-10-11T04:43:01.426Z,93.86
2022-10-11T04:44:01.424Z,93.86
2022-10-11T04:45:01.381Z,93.96
2022-10-11T04:46:01.378Z,94.07
2022-10-11T04:47:01.342Z,94.07
2022-10-11T04:48:01.343Z,94.12
2022-10-11T04:49:01.350Z,94.12
2022-10-11T04:50:01.322Z,94.23
2022-10-11T04:51:01.310Z,94.23
2022-10-11T04:52:01.301Z,94.33
2022-10-11T04:53:01.276Z,94.43
2022-10-11T04:54:01.262Z,94.64
2022-10-11T04:55:01.249Z,94.84
2022-10-11T04:56:01.652Z,95.05
2022-10-11T04:57:01.221Z,95.05
2022-10-11T04:58:01.230Z,95.15
2022-10-11T04:59:01.206Z,95.36
2022-10-11T05:00:01.192Z,95.56
2022-10-11T05:01:01.169Z,95.62
2022-10-11T05:02:01.223Z,95.83
2022-10-11T05:03:01.131Z,95.93
2022-10-11T05:04:01.131Z,96.03
2022-10-11T05:05:01.118Z,96.14
2022-10-11T05:06:05.452Z,96.23
2022-10-11T05:07:01.090Z,96.34
2022-10-11T05:08:01.075Z,96.44
2022-10-11T05:09:01.048Z,96.55
2022-10-11T05:10:01.065Z,96.75
2022-10-11T05:11:01.039Z,96.95
2022-10-11T05:12:01.022Z,97.16
2022-10-11T05:13:01.003Z,97.31
2022-10-11T05:14:01.005Z,97.37
2022-10-11T05:15:00.998Z,97.37
2022-10-11T05:16:00.998Z,97.47
2022-10-11T05:17:00.990Z,97.62
2022-10-11T05:18:00.950Z,97.67
2022-10-11T05:19:00.925Z,97.78
2022-10-11T05:20:00.964Z,97.88
2022-10-11T05:21:00.952Z,98.03
2022-10-11T05:22:00.911Z,98.08
2022-10-11T05:23:00.895Z,98.19
2022-10-11T05:24:00.958Z,98.19
2022-10-11T05:25:00.865Z,98.29
2022-10-11T05:26:00.896Z,98.39
2022-10-11T05:27:03.371Z,98.39
2022-10-11T05:28:00.816Z,98.50
2022-10-11T05:29:00.884Z,98.50
2022-10-11T05:30:00.835Z,98.50
2022-10-11T05:31:00.775Z,98.60
2022-10-11T05:32:00.769Z,98.60
2022-10-11T05:33:00.772Z,98.60
2022-10-11T05:34:00.758Z,98.50
2022-10-11T05:35:00.732Z,98.60
2022-10-11T05:36:00.736Z,98.60
2022-10-11T05:37:00.692Z,98.60
2022-10-11T05:38:00.693Z,98.75
2022-10-11T05:39:00.684Z,98.85
2022-10-11T05:40:00.673Z,98.96
2022-10-11T05:41:00.644Z,99.05
2022-10-11T05:42:00.652Z,99.11
2022-10-11T05:43:00.636Z,99.21
2022-10-11T05:44:00.624Z,99.21
2022-10-11T05:45:00.610Z,99.21
2022-10-11T05:46:00.619Z,99.21
2022-10-11T05:47:00.581Z,99.21
2022-10-11T05:48:00.606Z,99.21
2022-10-11T05:49:00.544Z,99.21
2022-10-11T05:50:00.551Z,99.21
2022-10-11T05:51:00.534Z,99.21
2022-10-11T05:52:00.515Z,99.21
2022-10-11T05:53:00.522Z,99.21
2022-10-11T05:54:00.494Z,99.17
2022-10-11T05:55:00.515Z,99.07
2022-10-11T05:56:00.451Z,99.07
2022-10-11T05:57:00.473Z,98.96
2022-10-11T05:58:00.441Z,98.86
2022-10-11T05:59:02.520Z,98.86
2022-10-11T06:00:00.416Z,98.86
2022-10-11T06:01:00.432Z,98.86
2022-10-11T06:02:00.389Z,98.86
2022-10-11T06:03:00.368Z,98.86
2022-10-11T06:04:00.367Z,98.86
2022-10-11T06:05:00.349Z,98.86
2022-10-11T06:06:00.358Z,98.96
2022-10-11T06:07:00.316Z,98.86
2022-10-11T06:08:00.302Z,98.96
2022-10-11T06:09:00.312Z,99.07
2022-10-11T06:10:00.287Z,99.07
2022-10-11T06:11:00.261Z,99.07
2022-10-11T06:12:00.252Z,99.07
2022-10-11T06:13:00.240Z,99.07
2022-10-11T06:14:00.217Z,99.17
2022-10-11T06:15:00.219Z,99.27
2022-10-11T06:16:00.218Z,99.38
2022-10-11T06:17:00.187Z,99.38
2022-10-11T06:18:00.180Z,99.38
2022-10-11T06:19:00.154Z,99.48
2022-10-11T06:20:00.176Z,99.48
2022-10-11T06:21:00.146Z,99.48
2022-10-11T06:22:00.114Z,99.58
2022-10-11T06:23:00.109Z,99.54
2022-10-11T06:24:01.530Z,99.54
2022-10-11T06:25:00.088Z,99.54
2022-10-11T06:26:00.087Z,99.54
2022-10-11T06:27:00.045Z,99.43
2022-10-11T06:28:00.034Z,99.33
2022-10-11T06:29:00.099Z,99.33
2022-10-11T06:30:00.037Z,99.33
2022-10-11T06:31:00.034Z,99.33
2022-10-11T06:32:00.006Z,99.33
2022-10-11T06:33:04.481Z,99.22
2022-10-11T06:34:00.963Z,99.22
2022-10-11T06:35:00.043Z,99.22
2022-10-11T06:35:59.990Z,99.22
2022-10-11T06:36:59.973Z,99.22
2022-10-11T06:37:59.927Z,99.22
2022-10-11T06:38:59.906Z,99.22
2022-10-11T06:39:59.892Z,99.12
2022-10-11T06:40:59.897Z,98.92
2022-10-11T06:41:59.866Z,98.92
2022-10-11T06:42:59.843Z,99.02
2022-10-11T06:43:59.872Z,99.02
2022-10-11T06:44:59.849Z,99.02
2022-10-11T06:45:59.813Z,99.02
2022-10-11T06:46:59.805Z,99.02
2022-10-11T06:47:59.790Z,98.92
2022-10-11T06:48:59.771Z,98.92
2022-10-11T06:49:59.805Z,98.92
2022-10-11T06:51:00.677Z,98.82
2022-10-11T06:51:59.754Z,98.82
2022-10-11T06:52:59.709Z,98.82
2022-10-11T06:53:59.764Z,98.82
2022-10-11T06:54:59.703Z,98.71
2022-10-11T06:55:59.703Z,98.67
2022-10-11T06:56:59.673Z,98.61
2022-10-11T06:57:59.672Z,98.57
2022-10-11T06:58:59.660Z,98.57
2022-10-11T06:59:59.656Z,98.57
2022-10-11T07:00:59.669Z,98.57
2022-10-11T07:01:59.623Z,98.57
2022-10-11T07:03:07.169Z,98.46
2022-10-11T07:03:59.580Z,98.57
2022-10-11T07:04:59.589Z,98.46
2022-10-11T07:06:02.619Z,98.46
2022-10-11T07:06:59.578Z,98.57
2022-10-11T07:07:59.556Z,98.67
2022-10-11T07:08:59.525Z,98.67
2022-10-11T07:09:59.518Z,98.67
2022-10-11T07:10:59.503Z,98.67
2022-10-11T07:11:59.481Z,98.67
2022-10-11T07:12:59.455Z,98.57
2022-10-11T07:13:59.496Z,98.57
2022-10-11T07:14:59.443Z,98.57
2022-10-11T07:15:59.443Z,98.67
2022-10-11T07:16:59.451Z,98.67
2022-10-11T07:17:59.432Z,98.67
2022-10-11T07:19:00.801Z,98.77
2022-10-11T07:19:59.419Z,98.87
2022-10-11T07:20:59.366Z,98.87
2022-10-11T07:21:59.374Z,98.87
2022-10-11T07:22:59.342Z,98.87
2022-10-11T07:23:59.329Z,98.97
2022-10-11T07:24:59.303Z,98.87
2022-10-11T07:26:01.363Z,98.87
2022-10-11T07:26:59.312Z,98.77
2022-10-11T07:27:59.299Z,98.57
2022-10-11T07:28:59.394Z,98.46
2022-10-11T07:29:59.340Z,98.36
2022-10-11T07:30:59.232Z,98.36
2022-10-11T07:31:59.244Z,98.36
2022-10-11T07:32:59.208Z,98.46
2022-10-11T07:33:59.199Z,98.57
2022-10-11T07:34:59.170Z,98.57
2022-10-11T07:35:59.167Z,98.67
2022-10-11T07:36:59.196Z,98.67
2022-10-11T07:37:59.163Z,98.67
2022-10-11T07:38:59.134Z,98.57
2022-10-11T07:39:59.155Z,98.57
2022-10-11T07:40:59.136Z,98.57
2022-10-11T07:41:59.294Z,98.67
2022-10-11T07:42:59.078Z,98.67
2022-10-11T07:43:59.081Z,98.67
2022-10-11T07:44:59.046Z,98.67
2022-10-11T07:45:59.061Z,98.62
2022-10-11T07:46:59.060Z,98.52
2022-10-11T07:47:59.014Z,98.62
2022-10-11T07:48:59.010Z,98.62
2022-10-11T07:49:58.985Z,98.62
2022-10-11T07:50:58.956Z,98.52
2022-10-11T07:51:58.987Z,98.42
2022-10-11T07:52:58.949Z,98.32
2022-10-11T07:54:01.344Z,98.42
2022-10-11T07:54:59.905Z,98.42
2022-10-11T07:55:58.935Z,98.32
2022-10-11T07:56:58.908Z,98.32
2022-10-11T07:57:58.865Z,98.21
2022-10-11T07:58:58.864Z,98.21
2022-10-11T07:59:58.868Z,98.11
2022-10-11T08:00:58.896Z,98.00
2022-10-11T08:01:59.013Z,98.00
2022-10-11T08:02:58.822Z,98.11
2022-10-11T08:03:58.831Z,98.11
2022-10-11T08:04:58.808Z,98.11
2022-10-11T08:05:58.777Z,98.11
2022-10-11T08:06:58.800Z,98.21
2022-10-11T08:07:58.760Z,98.32
2022-10-11T08:08:58.733Z,98.32
2022-10-11T08:09:58.743Z,98.37
2022-10-11T08:10:58.742Z,98.37
2022-10-11T08:11:58.747Z,98.37
2022-10-11T08:13:04.131Z,98.47
2022-10-11T08:13:59.704Z,98.37
2022-10-11T08:14:58.710Z,98.27
2022-10-11T08:15:58.661Z,98.27
2022-10-11T08:16:58.683Z,98.16
2022-10-11T08:17:58.649Z,98.07
2022-10-11T08:18:58.618Z,97.86
2022-10-11T08:19:58.663Z,97.96
2022-10-11T08:20:58.662Z,97.96
2022-10-11T08:21:58.595Z,97.86
2022-10-11T08:22:58.581Z,97.86
2022-10-11T08:23:58.561Z,97.86
2022-10-11T08:24:58.530Z,97.75
2022-10-11T08:25:58.514Z,97.86
2022-10-11T08:26:58.562Z,98.07
2022-10-11T08:27:58.513Z,98.07
2022-10-11T08:28:58.602Z,98.16
2022-10-11T08:29:58.481Z,98.07
2022-10-11T08:30:58.460Z,98.07
2022-10-11T08:31:58.513Z,98.07
2022-10-11T08:32:58.450Z,98.07
2022-10-11T08:33:58.432Z,98.07
2022-10-11T08:34:58.408Z,98.07
2022-10-11T08:35:58.422Z,98.16
2022-10-11T08:36:58.379Z,98.12
2022-10-11T08:37:58.412Z,98.02
2022-10-11T08:38:58.348Z,98.02
2022-10-11T08:39:58.390Z,98.02
2022-10-11T08:40:58.349Z,98.02
2022-10-11T08:41:58.308Z,98.02
2022-10-11T08:42:58.321Z,98.02
2022-10-11T08:43:58.286Z,98.02
2022-10-11T08:45:10.611Z,98.12
2022-10-11T08:45:59.260Z,98.12
2022-10-11T08:47:00.571Z,97.97
2022-10-11T08:47:58.278Z,97.87
2022-10-11T08:48:58.218Z,97.77
2022-10-11T08:49:58.218Z,97.56
2022-10-11T08:50:58.241Z,97.56
2022-10-11T08:51:58.178Z,97.36
2022-10-11T08:52:58.178Z,97.25
2022-10-11T08:53:58.189Z,97.15
2022-10-11T08:54:58.158Z,97.05
2022-10-11T08:55:58.171Z,97.05
2022-10-11T08:56:58.151Z,97.05
2022-10-11T08:57:58.118Z,96.95
2022-10-11T08:58:58.115Z,96.84
2022-10-11T08:59:58.076Z,96.74
2022-10-11T09:00:58.105Z,96.54
2022-10-11T09:01:58.156Z,96.54
2022-10-11T09:03:13.171Z,96.64
2022-10-11T09:03:59.078Z,96.64
2022-10-11T09:04:58.024Z,96.74
2022-10-11T09:05:58.024Z,96.80
2022-10-11T09:07:01.347Z,96.80
2022-10-11T09:07:58.998Z,96.70
2022-10-11T09:08:57.975Z,96.70
2022-10-11T09:09:57.954Z,96.59
2022-10-11T09:10:57.989Z,96.29
2022-10-11T09:11:57.922Z,95.88
2022-10-11T09:12:57.926Z,95.67
2022-10-11T09:13:57.923Z,95.67
2022-10-11T09:14:57.890Z,95.57
2022-10-11T09:15:57.904Z,95.26
2022-10-11T09:16:57.909Z,95.26
2022-10-11T09:17:57.866Z,95.37
2022-10-11T09:18:57.868Z,95.22
2022-10-11T09:19:57.824Z,95.22
2022-10-11T09:20:57.809Z,95.12
2022-10-11T09:21:57.826Z,95.02
2022-10-11T09:22:57.785Z,94.81
2022-10-11T09:23:57.823Z,94.60
2022-10-11T09:24:57.773Z,94.34
2022-10-11T09:25:57.780Z,94.34
2022-10-11T09:26:57.774Z,94.55
2022-10-11T09:28:02.714Z,94.75
2022-10-11T09:29:01.414Z,94.71
2022-10-11T09:29:57.704Z,94.71
2022-10-11T09:30:57.774Z,94.81
2022-10-11T09:31:57.714Z,94.81
2022-10-11T09:32:57.666Z,94.71
2022-10-11T09:33:57.661Z,94.60
2022-10-11T09:34:57.675Z,94.71
2022-10-11T09:35:57.644Z,94.71
2022-10-11T09:36:57.653Z,94.60
2022-10-11T09:37:57.633Z,94.51
2022-10-11T09:38:57.611Z,94.51
2022-10-11T09:39:57.582Z,94.36
2022-10-11T09:40:57.562Z,94.15
2022-10-11T09:41:57.560Z,93.85
2022-10-11T09:42:57.539Z,93.74
2022-10-11T09:43:57.511Z,93.65
2022-10-11T09:44:57.546Z,93.54
2022-10-11T09:45:57.492Z,93.24
2022-10-11T09:46:57.488Z,93.24
2022-10-11T09:47:57.469Z,93.03
2022-10-11T09:48:57.458Z,92.88
2022-10-11T09:49:57.614Z,92.78
2022-10-11T09:50:57.431Z,92.78
2022-10-11T09:51:57.414Z,92.88
2022-10-11T09:52:57.399Z,92.99
2022-10-11T09:53:57.421Z,92.84
2022-10-11T09:54:57.379Z,92.43
2022-10-11T09:55:57.372Z,92.23
2022-10-11T09:56:57.363Z,91.92
2022-10-11T09:57:57.352Z,92.02
2022-10-11T09:58:57.373Z,92.23
2022-10-11T09:59:57.326Z,92.13
2022-10-11T10:00:57.299Z,91.88
2022-10-11T10:01:57.420Z,91.67
2022-10-11T10:02:57.287Z,91.57
2022-10-11T10:03:57.273Z,91.27
2022-10-11T10:04:57.291Z,90.86
2022-10-11T10:05:57.226Z,90.66
2022-10-11T10:06:57.216Z,90.66
2022-10-11T10:07:57.259Z,90.75
2022-10-11T10:08:57.226Z,90.45
2022-10-11T10:09:57.228Z,90.35
2022-10-11T10:10:59.677Z,90.55
2022-10-11T10:11:57.174Z,90.55
2022-10-11T10:12:57.147Z,90.55
2022-10-11T10:13:57.142Z,90.45
2022-10-11T10:14:57.141Z,90.55
2022-10-11T10:15:57.119Z,90.75
2022-10-11T10:16:57.084Z,90.66
2022-10-11T10:17:57.077Z,90.66
2022-10-11T10:18:57.108Z,90.66
2022-10-11T10:19:57.063Z,90.75
2022-10-11T10:20:57.057Z,90.96
2022-10-11T10:21:57.067Z,91.06
2022-10-11T10:22:57.050Z,90.66
2022-10-11T10:23:57.002Z,90.45
2022-10-11T10:24:57.118Z,90.55
2022-10-11T10:25:56.986Z,90.55
2022-10-11T10:26:56.989Z,90.45
2022-10-11T10:27:56.966Z,90.66
2022-10-11T10:28:57.053Z,90.66
2022-10-11T10:29:56.959Z,90.66
2022-10-11T10:30:56.936Z,90.86
2022-10-11T10:32:57.883Z,91.12
2022-10-11T10:33:56.887Z,91.53
2022-10-11T10:34:56.891Z,91.43
2022-10-11T10:35:56.855Z,91.22
2022-10-11T10:36:56.852Z,91.22
2022-10-11T10:37:56.821Z,91.22
2022-10-11T10:38:56.853Z,91.12
2022-10-11T10:39:56.815Z,90.71
2022-10-11T10:40:56.783Z,90.41
2022-10-11T10:41:56.770Z,90.31
2022-10-11T10:42:56.772Z,90.00
2022-10-11T10:43:56.745Z,89.69
2022-10-11T10:44:56.740Z,89.08
2022-10-11T10:45:56.723Z,89.02
2022-10-11T10:46:56.721Z,89.59
2022-10-11T10:47:56.687Z,89.69
2022-10-11T10:49:57.694Z,89.49
2022-10-11T10:50:56.676Z,89.59
2022-10-11T10:51:56.639Z,89.59
2022-10-11T10:52:56.642Z,89.69
2022-10-11T10:53:56.612Z,89.59
2022-10-11T10:54:56.622Z,89.59
2022-10-11T10:55:56.592Z,89.28
2022-10-11T10:56:56.579Z,89.28
2022-10-11T10:57:56.582Z,89.49
2022-10-11T10:58:56.562Z,90.00
2022-10-11T10:59:56.552Z,90.16
2022-10-11T11:00:56.552Z,90.10
2022-10-11T11:01:56.551Z,89.79
2022-10-11T11:02:56.552Z,89.79
2022-10-11T11:03:56.502Z,89.75
2022-10-11T11:04:56.515Z,89.86
2022-10-11T11:05:56.457Z,90.16
2022-10-11T11:06:56.467Z,90.16
2022-10-11T11:07:56.440Z,90.16
2022-10-11T11:08:56.416Z,89.86
2022-10-11T11:09:56.400Z,89.55
2022-10-11T11:10:56.394Z,89.34
2022-10-11T11:11:56.410Z,89.65
2022-10-11T11:12:56.381Z,89.75
2022-10-11T11:13:56.346Z,89.75
2022-10-11T11:14:56.356Z,89.75
2022-10-11T11:15:56.328Z,89.75
2022-10-11T11:16:56.326Z,89.61
2022-10-11T11:17:56.303Z,89.51
2022-10-11T11:18:56.295Z,89.30
2022-10-11T11:19:56.275Z,88.79
2022-10-11T11:20:56.279Z,88.08
2022-10-11T11:21:56.247Z,87.88
2022-10-11T11:22:56.293Z,87.98
2022-10-11T11:23:56.214Z,88.08
2022-10-11T11:24:56.206Z,87.98
2022-10-11T11:25:56.204Z,87.88
2022-10-11T11:26:56.184Z,87.88
2022-10-11T11:27:56.200Z,87.67
2022-10-11T11:28:56.215Z,87.47
2022-10-11T11:29:56.158Z,86.76
2022-10-11T11:30:56.133Z,85.63
2022-10-11T11:31:56.130Z,85.74
2022-10-11T11:32:56.137Z,85.84
2022-10-11T11:33:56.103Z,85.60
2022-10-11T11:34:56.086Z,85.60
2022-10-11T11:35:56.077Z,85.60
2022-10-11T11:36:56.067Z,85.49
2022-10-11T11:38:01.288Z,85.08
2022-10-11T11:38:57.054Z,84.27
2022-10-11T11:39:56.026Z,83.90
2022-10-11T11:40:56.009Z,84.20
2022-10-11T11:41:55.987Z,84.31
2022-10-11T11:42:55.987Z,84.61
2022-10-11T11:43:55.996Z,84.11
2022-10-11T11:44:55.985Z,84.20
2022-10-11T11:45:55.946Z,84.98
2022-10-11T11:46:55.975Z,85.39
2022-10-11T11:47:55.911Z,85.49
2022-10-11T11:48:55.915Z,85.08
2022-10-11T11:49:55.921Z,84.58
2022-10-11T11:50:55.885Z,83.65
2022-10-11T11:51:55.873Z,83.45
2022-10-11T11:52:55.871Z,83.86
2022-10-11T11:53:55.834Z,83.25
2022-10-11T11:54:58.986Z,82.94
2022-10-11T11:55:56.802Z,83.42
2022-10-11T11:56:55.796Z,82.80
2022-10-11T11:57:55.795Z,82.40
2022-10-11T11:58:55.824Z,82.19
2022-10-11T11:59:55.769Z,82.40
2022-10-11T12:00:55.792Z,82.09
2022-10-11T12:01:55.797Z,81.99
2022-10-11T12:02:55.740Z,81.79
2022-10-11T12:03:55.690Z,81.38
2022-10-11T12:04:55.722Z,80.66
2022-10-11T12:05:55.674Z,79.95
2022-10-11T12:07:14.944Z,79.75
2022-10-11T12:07:56.659Z,79.54
2022-10-11T12:08:55.667Z,78.63
2022-10-11T12:09:55.641Z,78.83
2022-10-11T12:10:55.648Z,79.14
2022-10-11T12:11:55.634Z,78.53
2022-10-11T12:12:55.577Z,78.93
2022-10-11T12:13:55.598Z,78.63
2022-10-11T12:14:55.580Z,78.53
2022-10-11T12:15:55.568Z,78.42
2022-10-11T12:16:55.549Z,78.49
2022-10-11T12:17:55.527Z,78.08
2022-10-11T12:18:55.548Z,78.08
2022-10-11T12:19:55.512Z,78.39
2022-10-11T12:20:55.511Z,78.28
2022-10-11T12:21:55.466Z,78.39
2022-10-11T12:22:55.472Z,78.49
2022-10-11T12:23:55.468Z,78.69
2022-10-11T12:24:55.449Z,79.00
2022-10-11T12:25:55.436Z,79.30
2022-10-11T12:26:55.417Z,79.50
2022-10-11T12:27:55.420Z,79.50
2022-10-11T12:28:55.455Z,79.50
2022-10-11T12:29:55.389Z,79.20
2022-10-11T12:30:55.355Z,78.49
2022-10-11T12:31:55.369Z,76.15
2022-10-11T12:32:55.326Z,74.08
2022-10-11T12:33:55.335Z,73.26
2022-10-11T12:34:55.307Z,73.67
2022-10-11T12:35:55.299Z,73.47
2022-10-11T12:36:55.285Z,68.79
2022-10-11T12:37:55.287Z,70.21
2022-10-11T12:38:55.269Z,69.60
2022-10-11T12:39:55.261Z,67.66
2022-10-11T12:40:55.225Z,67.05
2022-10-11T12:41:55.248Z,68.58
2022-10-11T12:42:55.202Z,69.70
2022-10-11T12:43:55.216Z,69.80
2022-10-11T12:44:55.198Z,70.07
2022-10-11T12:45:55.174Z,70.48
2022-10-11T12:46:55.163Z,69.67
2022-10-11T12:47:55.174Z,67.66
2022-10-11T12:48:55.158Z,67.87
2022-10-11T12:49:55.137Z,68.18
2022-10-11T12:50:57.625Z,68.99
2022-10-11T12:51:56.113Z,68.48
2022-10-11T12:52:55.072Z,65.73
2022-10-11T12:54:21.524Z,64.20
2022-10-11T12:54:56.043Z,64.72
2022-10-11T12:55:55.033Z,65.94
2022-10-11T12:56:55.036Z,66.44
2022-10-11T12:57:55.051Z,66.44
2022-10-11T12:58:55.016Z,67.97
2022-10-11T12:59:55.045Z,68.79
2022-10-11T13:00:55.044Z,69.09
2022-10-11T13:01:55.036Z,69.19
2022-10-11T13:03:58.748Z,70.51
2022-10-11T13:04:58.719Z,70.34
2022-10-11T13:06:01.663Z,69.93
2022-10-11T13:07:01.078Z,70.65
2022-10-11T13:07:59.713Z,70.24
2022-10-11T13:08:58.668Z,69.73
2022-10-11T13:09:58.656Z,70.55
2022-10-11T13:10:58.647Z,70.55
2022-10-11T13:11:58.614Z,71.33
2022-10-11T13:12:58.643Z,71.33
2022-10-11T13:13:58.603Z,72.55
2022-10-11T13:14:58.656Z,72.65
2022-10-11T13:15:58.570Z,72.45
2022-10-11T13:16:58.604Z,72.55
2022-10-11T13:17:58.544Z,73.26
2022-10-11T13:18:58.564Z,73.47
2022-10-11T13:19:58.559Z,73.16
2022-10-11T13:20:58.530Z,72.45
2022-10-11T13:21:58.558Z,72.75
2022-10-11T13:22:58.496Z,72.25
2022-10-11T13:23:58.512Z,71.94
2022-10-11T13:24:58.464Z,70.58
2022-10-11T13:25:58.483Z,69.97
2022-10-11T13:26:58.434Z,69.97
2022-10-11T13:27:58.434Z,69.06
2022-10-11T13:28:58.451Z,69.77
2022-10-11T13:29:58.415Z,69.67
2022-10-11T13:30:58.395Z,69.97
2022-10-11T13:31:58.377Z,70.18
2022-10-11T13:32:58.374Z,70.07
2022-10-11T13:33:58.374Z,70.48
2022-10-11T13:34:58.538Z,70.45
2022-10-11T13:35:58.335Z,69.53
2022-10-11T13:36:58.310Z,68.72
2022-10-11T13:37:58.303Z,69.16
2022-10-11T13:38:58.282Z,69.06
2022-10-11T13:39:58.298Z,69.16
2022-10-11T13:40:58.242Z,69.57
2022-10-11T13:41:58.247Z,69.97
2022-10-11T13:42:58.224Z,70.48
2022-10-11T13:43:58.211Z,70.68
2022-10-11T13:44:58.201Z,71.09
2022-10-11T13:45:58.192Z,70.68
2022-10-11T13:46:58.185Z,70.68
2022-10-11T13:47:58.171Z,71.19
2022-10-11T13:48:58.152Z,71.09
2022-10-11T13:49:58.148Z,71.53
2022-10-11T13:50:58.116Z,71.64
2022-10-11T13:51:58.128Z,71.84
2022-10-11T13:52:58.105Z,71.53
2022-10-11T13:53:58.098Z,71.33
2022-10-11T13:54:58.079Z,71.33
2022-10-11T13:55:58.071Z,71.94
2022-10-11T13:56:58.083Z,72.34
2022-10-11T13:57:58.041Z,72.14
2022-10-11T13:58:58.021Z,72.48
2022-10-11T13:59:58.020Z,72.58
2022-10-11T14:00:58.080Z,72.78
2022-10-11T14:01:57.969Z,72.99
2022-10-11T14:02:57.969Z,73.10
2022-10-11T14:03:57.946Z,73.40
2022-10-11T14:04:57.953Z,73.40
2022-10-11T14:05:57.947Z,73.19
2022-10-11T14:06:57.931Z,73.19
2022-10-11T14:07:57.910Z,73.10
2022-10-11T14:08:57.892Z,73.40
2022-10-11T14:09:57.881Z,73.30
2022-10-11T14:11:01.313Z,73.80
2022-10-11T14:11:58.881Z,74.11
2022-10-11T14:12:57.826Z,73.60
2022-10-11T14:13:57.829Z,73.60
2022-10-11T14:14:57.821Z,73.71
2022-10-11T14:15:57.815Z,74.52
2022-10-11T14:16:57.789Z,74.52
2022-10-11T14:17:57.796Z,74.62
2022-10-11T14:18:57.757Z,74.38
2022-10-11T14:20:03.371Z,73.97
2022-10-11T14:20:58.747Z,73.91
2022-10-11T14:21:57.769Z,73.60
2022-10-11T14:22:57.700Z,72.38
2022-10-11T14:23:57.702Z,72.48
2022-10-11T14:24:57.697Z,72.69
2022-10-11T14:25:58.604Z,72.75
2022-10-11T14:26:57.667Z,72.65
2022-10-11T14:27:57.647Z,73.16
2022-10-11T14:28:57.628Z,72.65
2022-10-11T14:30:24.165Z,72.04
2022-10-11T14:30:58.624Z,72.14
2022-10-11T14:31:57.607Z,72.34
2022-10-11T14:32:57.624Z,72.65
2022-10-11T14:33:57.569Z,72.45